sensor_id;sensor_type;location;lat;lon;timestamp;temperature;humidity
21830;DHT22;11077;50.264;6.798;2023-06-22T00:02:21;19.80;99.90
21830;DHT22;11077;50.264;6.798;2023-06-22T00:04:50;19.80;99.90
21830;DHT22;11077;50.264;6.798;2023-06-22T00:07:17;19.80;99.90
21830;DHT22;11077;50.264;6.798;2023-06-22T00:09:44;19.80;99.90
21830;DHT22;11077;50.264;6.798;2023-06-22T00:12:11;19.80;99.90
21830;DHT22;11077;50.264;6.798;2023-06-22T00:14:38;19.80;99.90
21830;DHT22;11077;50.264;6.798;2023-06-22T00:17:05;19.80;99.90
21830;DHT22;11077;50.264;6.798;2023-06-22T00:19:33;19.80;99.90
21830;DHT22;11077;50.264;6.798;2023-06-22T00:22:03;19.80;99.90
21830;DHT22;11077;50.264;6.798;2023-06-22T00:24:30;19.80;99.90
21830;DHT22;11077;50.264;6.798;2023-06-22T00:26:57;19.80;99.90
21830;DHT22;11077;50.264;6.798;2023-06-22T00:29:24;19.80;99.90
21830;DHT22;11077;50.264;6.798;2023-06-22T00:31:51;19.80;99.90
21830;DHT22;11077;50.264;6.798;2023-06-22T00:34:18;19.80;99.90
21830;DHT22;11077;50.264;6.798;2023-06-22T00:36:46;19.80;99.90
21830;DHT22;11077;50.264;6.798;2023-06-22T00:39:14;19.80;99.90
21830;DHT22;11077;50.264;6.798;2023-06-22T00:41:42;19.80;99.90
21830;DHT22;11077;50.264;6.798;2023-06-22T00:44:09;19.80;99.90
21830;DHT22;11077;50.264;6.798;2023-06-22T00:46:37;19.80;99.90
21830;DHT22;11077;50.264;6.798;2023-06-22T00:49:05;19.80;99.90
21830;DHT22;11077;50.264;6.798;2023-06-22T00:51:32;19.80;99.90
21830;DHT22;11077;50.264;6.798;2023-06-22T00:53:59;19.80;99.90
21830;DHT22;11077;50.264;6.798;2023-06-22T00:56:28;19.70;99.90
21830;DHT22;11077;50.264;6.798;2023-06-22T00:58:55;19.60;99.90
21830;DHT22;11077;50.264;6.798;2023-06-22T01:01:25;19.60;99.90
21830;DHT22;11077;50.264;6.798;2023-06-22T01:03:52;19.60;99.90
21830;DHT22;11077;50.264;6.798;2023-06-22T01:06:26;19.60;99.90
21830;DHT22;11077;50.264;6.798;2023-06-22T01:09:00;19.60;99.90
21830;DHT22;11077;50.264;6.798;2023-06-22T01:11:37;19.50;99.90
21830;DHT22;11077;50.264;6.798;2023-06-22T01:14:12;19.50;99.90
21830;DHT22;11077;50.264;6.798;2023-06-22T01:16:41;19.50;99.90
21830;DHT22;11077;50.264;6.798;2023-06-22T01:19:19;19.40;99.90
21830;DHT22;11077;50.264;6.798;2023-06-22T01:21:48;19.40;99.90
21830;DHT22;11077;50.264;6.798;2023-06-22T01:24:21;19.40;99.90
21830;DHT22;11077;50.264;6.798;2023-06-22T01:26:57;19.30;99.90
21830;DHT22;11077;50.264;6.798;2023-06-22T01:29:28;19.20;99.90
21830;DHT22;11077;50.264;6.798;2023-06-22T01:31:56;19.20;99.90
21830;DHT22;11077;50.264;6.798;2023-06-22T01:34:24;19.10;99.90
21830;DHT22;11077;50.264;6.798;2023-06-22T01:36:52;19.10;99.90
21830;DHT22;11077;50.264;6.798;2023-06-22T01:39:21;19.10;99.90
21830;DHT22;11077;50.264;6.798;2023-06-22T01:41:57;19.10;99.90
21830;DHT22;11077;50.264;6.798;2023-06-22T01:44:27;19.10;99.90
21830;DHT22;11077;50.264;6.798;2023-06-22T01:46:55;19.10;99.90
21830;DHT22;11077;50.264;6.798;2023-06-22T01:49:22;19.00;99.90
21830;DHT22;11077;50.264;6.798;2023-06-22T01:51:50;19.00;99.90
21830;DHT22;11077;50.264;6.798;2023-06-22T01:54:17;19.00;99.90
21830;DHT22;11077;50.264;6.798;2023-06-22T01:56:46;18.90;99.90
21830;DHT22;11077;50.264;6.798;2023-06-22T01:59:17;18.80;99.90
21830;DHT22;11077;50.264;6.798;2023-06-22T02:01:52;18.80;99.90
21830;DHT22;11077;50.264;6.798;2023-06-22T02:04:26;18.80;99.90
21830;DHT22;11077;50.264;6.798;2023-06-22T02:06:56;18.70;99.90
21830;DHT22;11077;50.264;6.798;2023-06-22T02:09:25;18.70;99.90
21830;DHT22;11077;50.264;6.798;2023-06-22T02:11:54;18.70;99.90
21830;DHT22;11077;50.264;6.798;2023-06-22T02:14:23;18.70;99.90
21830;DHT22;11077;50.264;6.798;2023-06-22T02:16:52;18.70;99.90
21830;DHT22;11077;50.264;6.798;2023-06-22T02:19:23;18.60;99.90
21830;DHT22;11077;50.264;6.798;2023-06-22T02:21:50;18.60;99.90
21830;DHT22;11077;50.264;6.798;2023-06-22T02:24:20;18.50;99.90
21830;DHT22;11077;50.264;6.798;2023-06-22T02:26:49;18.50;99.90
21830;DHT22;11077;50.264;6.798;2023-06-22T02:29:16;18.50;99.90
21830;DHT22;11077;50.264;6.798;2023-06-22T02:31:44;18.50;99.90
21830;DHT22;11077;50.264;6.798;2023-06-22T02:34:13;18.40;99.90
21830;DHT22;11077;50.264;6.798;2023-06-22T02:36:44;18.40;99.90
21830;DHT22;11077;50.264;6.798;2023-06-22T02:39:17;18.40;99.90
21830;DHT22;11077;50.264;6.798;2023-06-22T02:41:44;18.40;99.90
21830;DHT22;11077;50.264;6.798;2023-06-22T02:44:11;18.30;99.90
21830;DHT22;11077;50.264;6.798;2023-06-22T02:46:38;18.30;99.90
21830;DHT22;11077;50.264;6.798;2023-06-22T02:49:06;18.20;99.90
21830;DHT22;11077;50.264;6.798;2023-06-22T02:51:34;18.30;99.90
21830;DHT22;11077;50.264;6.798;2023-06-22T02:54:02;18.20;99.90
21830;DHT22;11077;50.264;6.798;2023-06-22T02:56:30;18.20;99.90
21830;DHT22;11077;50.264;6.798;2023-06-22T02:58:59;18.20;99.90
21830;DHT22;11077;50.264;6.798;2023-06-22T03:01:30;18.10;99.90
21830;DHT22;11077;50.264;6.798;2023-06-22T03:04:04;18.20;99.90
21830;DHT22;11077;50.264;6.798;2023-06-22T03:06:31;18.20;99.90
21830;DHT22;11077;50.264;6.798;2023-06-22T03:09:02;18.10;99.90
21830;DHT22;11077;50.264;6.798;2023-06-22T03:11:31;18.10;99.90
21830;DHT22;11077;50.264;6.798;2023-06-22T03:14:05;18.10;99.90
21830;DHT22;11077;50.264;6.798;2023-06-22T03:16:33;18.00;99.90
21830;DHT22;11077;50.264;6.798;2023-06-22T03:19:00;18.00;99.90
21830;DHT22;11077;50.264;6.798;2023-06-22T03:21:28;17.90;99.90
21830;DHT22;11077;50.264;6.798;2023-06-22T03:23:55;17.90;99.90
21830;DHT22;11077;50.264;6.798;2023-06-22T03:26:24;17.80;99.90
21830;DHT22;11077;50.264;6.798;2023-06-22T03:28:52;17.80;99.90
21830;DHT22;11077;50.264;6.798;2023-06-22T03:31:19;17.80;99.90
21830;DHT22;11077;50.264;6.798;2023-06-22T03:33:48;17.80;99.90
21830;DHT22;11077;50.264;6.798;2023-06-22T03:36:15;17.70;99.90
21830;DHT22;11077;50.264;6.798;2023-06-22T03:38:44;17.70;99.90
21830;DHT22;11077;50.264;6.798;2023-06-22T03:41:12;17.70;99.90
21830;DHT22;11077;50.264;6.798;2023-06-22T03:43:41;17.70;99.90
21830;DHT22;11077;50.264;6.798;2023-06-22T03:46:08;17.70;99.90
21830;DHT22;11077;50.264;6.798;2023-06-22T03:48:36;17.60;99.90
21830;DHT22;11077;50.264;6.798;2023-06-22T03:51:03;17.60;99.90
21830;DHT22;11077;50.264;6.798;2023-06-22T03:53:31;17.60;99.90
21830;DHT22;11077;50.264;6.798;2023-06-22T03:55:58;17.60;99.90
21830;DHT22;11077;50.264;6.798;2023-06-22T03:58:25;17.50;99.90
21830;DHT22;11077;50.264;6.798;2023-06-22T04:00:55;17.60;99.90
21830;DHT22;11077;50.264;6.798;2023-06-22T04:03:22;17.50;99.90
21830;DHT22;11077;50.264;6.798;2023-06-22T04:05:49;17.50;99.90
21830;DHT22;11077;50.264;6.798;2023-06-22T04:08:18;17.50;99.90
21830;DHT22;11077;50.264;6.798;2023-06-22T04:10:45;17.40;99.90
21830;DHT22;11077;50.264;6.798;2023-06-22T04:13:12;17.40;99.90
21830;DHT22;11077;50.264;6.798;2023-06-22T04:15:40;17.40;99.90
21830;DHT22;11077;50.264;6.798;2023-06-22T04:18:09;17.30;99.90
21830;DHT22;11077;50.264;6.798;2023-06-22T04:20:36;17.30;99.90
21830;DHT22;11077;50.264;6.798;2023-06-22T04:23:03;17.30;99.90
21830;DHT22;11077;50.264;6.798;2023-06-22T04:25:30;17.30;99.90
21830;DHT22;11077;50.264;6.798;2023-06-22T04:27:58;17.30;99.90
21830;DHT22;11077;50.264;6.798;2023-06-22T04:30:25;17.30;99.90
21830;DHT22;11077;50.264;6.798;2023-06-22T04:32:52;17.30;99.90
21830;DHT22;11077;50.264;6.798;2023-06-22T04:35:25;17.30;99.90
21830;DHT22;11077;50.264;6.798;2023-06-22T04:37:55;17.30;99.90
21830;DHT22;11077;50.264;6.798;2023-06-22T04:40:22;17.30;99.90
21830;DHT22;11077;50.264;6.798;2023-06-22T04:42:50;17.40;99.90
21830;DHT22;11077;50.264;6.798;2023-06-22T04:45:20;17.40;99.90
21830;DHT22;11077;50.264;6.798;2023-06-22T04:47:47;17.40;99.90
21830;DHT22;11077;50.264;6.798;2023-06-22T04:50:15;17.40;99.90
21830;DHT22;11077;50.264;6.798;2023-06-22T04:52:45;17.40;99.90
21830;DHT22;11077;50.264;6.798;2023-06-22T04:55:12;17.40;99.90
21830;DHT22;11077;50.264;6.798;2023-06-22T04:57:44;17.40;99.90
21830;DHT22;11077;50.264;6.798;2023-06-22T05:00:16;17.40;99.90
21830;DHT22;11077;50.264;6.798;2023-06-22T05:02:46;17.40;99.90
21830;DHT22;11077;50.264;6.798;2023-06-22T05:05:13;17.40;99.90
21830;DHT22;11077;50.264;6.798;2023-06-22T05:07:43;17.40;99.90
21830;DHT22;11077;50.264;6.798;2023-06-22T05:10:14;17.50;99.90
21830;DHT22;11077;50.264;6.798;2023-06-22T05:12:41;17.50;99.90
21830;DHT22;11077;50.264;6.798;2023-06-22T05:15:09;17.50;99.90
21830;DHT22;11077;50.264;6.798;2023-06-22T05:17:37;17.60;99.90
21830;DHT22;11077;50.264;6.798;2023-06-22T05:20:10;17.60;99.90
21830;DHT22;11077;50.264;6.798;2023-06-22T05:22:39;17.60;99.90
21830;DHT22;11077;50.264;6.798;2023-06-22T05:25:09;17.70;99.90
21830;DHT22;11077;50.264;6.798;2023-06-22T05:27:37;17.70;99.90
21830;DHT22;11077;50.264;6.798;2023-06-22T05:30:06;17.80;99.90
21830;DHT22;11077;50.264;6.798;2023-06-22T05:32:34;17.80;99.90
21830;DHT22;11077;50.264;6.798;2023-06-22T05:35:02;17.80;99.90
21830;DHT22;11077;50.264;6.798;2023-06-22T05:37:30;17.90;99.90
21830;DHT22;11077;50.264;6.798;2023-06-22T05:39:57;17.90;99.90
21830;DHT22;11077;50.264;6.798;2023-06-22T05:42:25;18.00;99.90
21830;DHT22;11077;50.264;6.798;2023-06-22T05:44:53;18.00;99.90
21830;DHT22;11077;50.264;6.798;2023-06-22T05:47:21;18.10;99.90
21830;DHT22;11077;50.264;6.798;2023-06-22T05:49:48;18.10;99.90
21830;DHT22;11077;50.264;6.798;2023-06-22T05:52:16;18.10;99.90
21830;DHT22;11077;50.264;6.798;2023-06-22T05:54:43;18.20;99.90
21830;DHT22;11077;50.264;6.798;2023-06-22T05:57:11;18.20;99.90
21830;DHT22;11077;50.264;6.798;2023-06-22T05:59:40;18.20;99.90
21830;DHT22;11077;50.264;6.798;2023-06-22T06:02:07;18.20;99.90
21830;DHT22;11077;50.264;6.798;2023-06-22T06:04:34;18.30;99.90
21830;DHT22;11077;50.264;6.798;2023-06-22T06:07:01;18.30;99.90
21830;DHT22;11077;50.264;6.798;2023-06-22T06:09:29;18.30;99.90
21830;DHT22;11077;50.264;6.798;2023-06-22T06:11:56;18.30;99.90
21830;DHT22;11077;50.264;6.798;2023-06-22T06:14:23;18.40;99.90
21830;DHT22;11077;50.264;6.798;2023-06-22T06:16:52;18.40;99.90
21830;DHT22;11077;50.264;6.798;2023-06-22T06:19:19;18.40;99.90
21830;DHT22;11077;50.264;6.798;2023-06-22T06:21:46;18.50;99.90
21830;DHT22;11077;50.264;6.798;2023-06-22T06:24:14;18.60;99.90
21830;DHT22;11077;50.264;6.798;2023-06-22T06:26:41;18.60;99.90
21830;DHT22;11077;50.264;6.798;2023-06-22T06:29:08;18.60;99.90
21830;DHT22;11077;50.264;6.798;2023-06-22T06:31:35;18.70;99.90
21830;DHT22;11077;50.264;6.798;2023-06-22T06:34:04;18.70;99.90
21830;DHT22;11077;50.264;6.798;2023-06-22T06:36:31;18.80;99.90
21830;DHT22;11077;50.264;6.798;2023-06-22T06:38:58;18.80;99.90
21830;DHT22;11077;50.264;6.798;2023-06-22T06:41:26;18.90;99.90
21830;DHT22;11077;50.264;6.798;2023-06-22T06:43:53;18.90;99.90
21830;DHT22;11077;50.264;6.798;2023-06-22T06:46:21;19.00;99.90
21830;DHT22;11077;50.264;6.798;2023-06-22T06:48:48;19.10;99.90
21830;DHT22;11077;50.264;6.798;2023-06-22T06:51:17;19.20;99.90
21830;DHT22;11077;50.264;6.798;2023-06-22T06:53:44;19.20;99.90
21830;DHT22;11077;50.264;6.798;2023-06-22T06:56:11;19.30;99.90
21830;DHT22;11077;50.264;6.798;2023-06-22T06:58:41;19.40;99.90
21830;DHT22;11077;50.264;6.798;2023-06-22T07:01:11;19.50;99.90
21830;DHT22;11077;50.264;6.798;2023-06-22T07:03:38;19.60;99.90
21830;DHT22;11077;50.264;6.798;2023-06-22T07:06:05;19.80;99.90
21830;DHT22;11077;50.264;6.798;2023-06-22T07:08:34;19.90;99.90
21830;DHT22;11077;50.264;6.798;2023-06-22T07:11:02;20.10;99.90
21830;DHT22;11077;50.264;6.798;2023-06-22T07:13:29;20.20;99.90
21830;DHT22;11077;50.264;6.798;2023-06-22T07:15:56;20.40;99.90
21830;DHT22;11077;50.264;6.798;2023-06-22T07:18:24;20.50;99.90
21830;DHT22;11077;50.264;6.798;2023-06-22T07:20:52;20.60;99.90
21830;DHT22;11077;50.264;6.798;2023-06-22T07:23:19;20.60;99.90
21830;DHT22;11077;50.264;6.798;2023-06-22T07:25:47;20.70;99.90
21830;DHT22;11077;50.264;6.798;2023-06-22T07:28:15;20.70;99.90
21830;DHT22;11077;50.264;6.798;2023-06-22T07:30:42;20.70;99.90
21830;DHT22;11077;50.264;6.798;2023-06-22T07:33:09;20.80;99.90
21830;DHT22;11077;50.264;6.798;2023-06-22T07:35:36;20.90;99.90
21830;DHT22;11077;50.264;6.798;2023-06-22T07:38:03;21.00;99.90
21830;DHT22;11077;50.264;6.798;2023-06-22T07:40:31;21.10;99.90
21830;DHT22;11077;50.264;6.798;2023-06-22T07:43:00;21.20;99.90
21830;DHT22;11077;50.264;6.798;2023-06-22T07:45:27;21.30;99.90
21830;DHT22;11077;50.264;6.798;2023-06-22T07:47:54;21.40;99.90
21830;DHT22;11077;50.264;6.798;2023-06-22T07:50:21;21.50;99.90
21830;DHT22;11077;50.264;6.798;2023-06-22T07:52:48;21.60;99.90
21830;DHT22;11077;50.264;6.798;2023-06-22T07:55:18;21.70;99.90
21830;DHT22;11077;50.264;6.798;2023-06-22T07:57:48;21.80;99.90
21830;DHT22;11077;50.264;6.798;2023-06-22T08:00:19;21.80;99.90
21830;DHT22;11077;50.264;6.798;2023-06-22T08:02:47;21.90;99.90
21830;DHT22;11077;50.264;6.798;2023-06-22T08:05:14;22.00;99.90
21830;DHT22;11077;50.264;6.798;2023-06-22T08:07:43;22.00;99.90
21830;DHT22;11077;50.264;6.798;2023-06-22T08:10:11;22.00;99.90
21830;DHT22;11077;50.264;6.798;2023-06-22T08:12:38;22.00;99.90
21830;DHT22;11077;50.264;6.798;2023-06-22T08:15:07;22.10;99.90
21830;DHT22;11077;50.264;6.798;2023-06-22T08:17:37;22.20;99.90
21830;DHT22;11077;50.264;6.798;2023-06-22T08:20:07;22.30;99.90
21830;DHT22;11077;50.264;6.798;2023-06-22T08:22:37;22.40;99.90
21830;DHT22;11077;50.264;6.798;2023-06-22T08:25:05;22.50;99.90
21830;DHT22;11077;50.264;6.798;2023-06-22T08:27:34;22.60;99.90
21830;DHT22;11077;50.264;6.798;2023-06-22T08:30:02;22.70;99.90
21830;DHT22;11077;50.264;6.798;2023-06-22T08:32:30;22.70;99.90
21830;DHT22;11077;50.264;6.798;2023-06-22T08:34:59;22.70;99.90
21830;DHT22;11077;50.264;6.798;2023-06-22T08:37:28;22.60;99.90
21830;DHT22;11077;50.264;6.798;2023-06-22T08:39:58;22.70;99.90
21830;DHT22;11077;50.264;6.798;2023-06-22T08:42:25;22.70;99.90
21830;DHT22;11077;50.264;6.798;2023-06-22T08:44:53;22.80;99.90
21830;DHT22;11077;50.264;6.798;2023-06-22T08:47:21;22.80;99.90
21830;DHT22;11077;50.264;6.798;2023-06-22T08:49:49;22.80;99.90
21830;DHT22;11077;50.264;6.798;2023-06-22T08:52:17;22.70;99.90
21830;DHT22;11077;50.264;6.798;2023-06-22T08:54:45;22.70;99.90
21830;DHT22;11077;50.264;6.798;2023-06-22T08:57:13;22.70;99.90
21830;DHT22;11077;50.264;6.798;2023-06-22T08:59:40;22.70;99.90
21830;DHT22;11077;50.264;6.798;2023-06-22T09:02:08;22.60;99.90
21830;DHT22;11077;50.264;6.798;2023-06-22T09:04:35;22.70;99.90
21830;DHT22;11077;50.264;6.798;2023-06-22T09:07:03;22.70;99.90
21830;DHT22;11077;50.264;6.798;2023-06-22T09:09:32;22.80;99.90
21830;DHT22;11077;50.264;6.798;2023-06-22T09:11:59;22.80;99.90
21830;DHT22;11077;50.264;6.798;2023-06-22T09:14:27;22.80;99.90
21830;DHT22;11077;50.264;6.798;2023-06-22T09:16:55;22.70;99.90
21830;DHT22;11077;50.264;6.798;2023-06-22T09:19:22;22.70;99.90
21830;DHT22;11077;50.264;6.798;2023-06-22T09:21:50;22.50;99.90
21830;DHT22;11077;50.264;6.798;2023-06-22T09:24:17;22.50;99.90
21830;DHT22;11077;50.264;6.798;2023-06-22T09:26:46;22.40;99.90
21830;DHT22;11077;50.264;6.798;2023-06-22T09:29:14;22.40;99.90
21830;DHT22;11077;50.264;6.798;2023-06-22T09:31:41;22.30;99.90
21830;DHT22;11077;50.264;6.798;2023-06-22T09:34:10;22.20;99.90
21830;DHT22;11077;50.264;6.798;2023-06-22T09:36:40;22.10;99.90
21830;DHT22;11077;50.264;6.798;2023-06-22T09:39:07;22.00;99.90
21830;DHT22;11077;50.264;6.798;2023-06-22T09:41:35;21.90;99.90
21830;DHT22;11077;50.264;6.798;2023-06-22T09:44:04;21.90;99.90
21830;DHT22;11077;50.264;6.798;2023-06-22T09:46:31;21.90;99.90
21830;DHT22;11077;50.264;6.798;2023-06-22T09:49:00;21.90;99.90
21830;DHT22;11077;50.264;6.798;2023-06-22T09:51:28;21.80;99.90
21830;DHT22;11077;50.264;6.798;2023-06-22T09:53:55;21.80;99.90
21830;DHT22;11077;50.264;6.798;2023-06-22T09:56:24;21.90;99.90
21830;DHT22;11077;50.264;6.798;2023-06-22T09:58:54;21.70;99.90
21830;DHT22;11077;50.264;6.798;2023-06-22T10:01:22;21.50;99.90
21830;DHT22;11077;50.264;6.798;2023-06-22T10:03:52;21.30;99.90
21830;DHT22;11077;50.264;6.798;2023-06-22T10:06:21;21.20;99.90
21830;DHT22;11077;50.264;6.798;2023-06-22T10:08:50;21.00;99.90
21830;DHT22;11077;50.264;6.798;2023-06-22T10:11:17;20.90;99.90
21830;DHT22;11077;50.264;6.798;2023-06-22T10:13:45;20.80;99.90
21830;DHT22;11077;50.264;6.798;2023-06-22T10:16:12;20.80;99.90
21830;DHT22;11077;50.264;6.798;2023-06-22T10:18:40;20.70;99.90
21830;DHT22;11077;50.264;6.798;2023-06-22T10:21:08;20.70;99.90
21830;DHT22;11077;50.264;6.798;2023-06-22T10:23:35;20.70;99.90
21830;DHT22;11077;50.264;6.798;2023-06-22T10:26:02;20.70;99.90
21830;DHT22;11077;50.264;6.798;2023-06-22T10:28:29;20.70;99.90
21830;DHT22;11077;50.264;6.798;2023-06-22T10:30:57;20.70;99.90
21830;DHT22;11077;50.264;6.798;2023-06-22T10:33:24;20.70;99.90
21830;DHT22;11077;50.264;6.798;2023-06-22T10:35:53;20.70;99.90
21830;DHT22;11077;50.264;6.798;2023-06-22T10:38:20;20.70;99.90
21830;DHT22;11077;50.264;6.798;2023-06-22T10:40:47;20.70;99.90
21830;DHT22;11077;50.264;6.798;2023-06-22T10:43:14;20.60;99.90
21830;DHT22;11077;50.264;6.798;2023-06-22T10:45:42;20.70;99.90
21830;DHT22;11077;50.264;6.798;2023-06-22T10:48:09;20.70;99.90
21830;DHT22;11077;50.264;6.798;2023-06-22T10:50:36;20.80;99.90
21830;DHT22;11077;50.264;6.798;2023-06-22T10:53:05;21.00;99.90
21830;DHT22;11077;50.264;6.798;2023-06-22T10:55:32;21.20;99.90
21830;DHT22;11077;50.264;6.798;2023-06-22T10:58:00;21.30;99.90
21830;DHT22;11077;50.264;6.798;2023-06-22T11:00:27;21.60;99.90
21830;DHT22;11077;50.264;6.798;2023-06-22T11:02:54;21.80;99.90
21830;DHT22;11077;50.264;6.798;2023-06-22T11:05:22;22.10;99.90
21830;DHT22;11077;50.264;6.798;2023-06-22T11:07:49;22.20;99.90
21830;DHT22;11077;50.264;6.798;2023-06-22T11:10:20;22.40;99.90
21830;DHT22;11077;50.264;6.798;2023-06-22T11:12:48;22.40;99.90
21830;DHT22;11077;50.264;6.798;2023-06-22T11:15:15;22.50;99.90
21830;DHT22;11077;50.264;6.798;2023-06-22T11:17:43;22.50;99.90
21830;DHT22;11077;50.264;6.798;2023-06-22T11:20:11;22.60;99.90
21830;DHT22;11077;50.264;6.798;2023-06-22T11:22:40;22.60;99.90
21830;DHT22;11077;50.264;6.798;2023-06-22T11:25:08;22.70;99.90
21830;DHT22;11077;50.264;6.798;2023-06-22T11:27:39;22.70;99.90
21830;DHT22;11077;50.264;6.798;2023-06-22T11:30:09;22.70;99.90
21830;DHT22;11077;50.264;6.798;2023-06-22T11:32:36;22.70;99.90
21830;DHT22;11077;50.264;6.798;2023-06-22T11:35:04;22.60;99.90
21830;DHT22;11077;50.264;6.798;2023-06-22T11:37:32;22.60;99.90
21830;DHT22;11077;50.264;6.798;2023-06-22T11:40:02;22.60;99.90
21830;DHT22;11077;50.264;6.798;2023-06-22T11:42:34;22.70;99.90
21830;DHT22;11077;50.264;6.798;2023-06-22T11:45:05;22.70;99.90
21830;DHT22;11077;50.264;6.798;2023-06-22T11:47:32;22.80;99.90
21830;DHT22;11077;50.264;6.798;2023-06-22T11:50:00;22.80;99.90
21830;DHT22;11077;50.264;6.798;2023-06-22T11:52:27;22.90;99.90
21830;DHT22;11077;50.264;6.798;2023-06-22T11:54:55;23.10;99.90
21830;DHT22;11077;50.264;6.798;2023-06-22T11:57:22;23.20;99.90
21830;DHT22;11077;50.264;6.798;2023-06-22T11:59:49;23.30;99.90
21830;DHT22;11077;50.264;6.798;2023-06-22T12:02:18;23.40;99.90
21830;DHT22;11077;50.264;6.798;2023-06-22T12:04:45;23.60;99.90
21830;DHT22;11077;50.264;6.798;2023-06-22T12:07:12;23.70;99.90
21830;DHT22;11077;50.264;6.798;2023-06-22T12:09:40;23.70;99.90
21830;DHT22;11077;50.264;6.798;2023-06-22T12:12:08;23.70;99.90
21830;DHT22;11077;50.264;6.798;2023-06-22T12:14:35;23.80;99.90
21830;DHT22;11077;50.264;6.798;2023-06-22T12:17:03;23.90;99.90
21830;DHT22;11077;50.264;6.798;2023-06-22T12:19:31;24.00;99.90
21830;DHT22;11077;50.264;6.798;2023-06-22T12:21:58;24.10;99.90
21830;DHT22;11077;50.264;6.798;2023-06-22T12:24:26;24.30;99.90
21830;DHT22;11077;50.264;6.798;2023-06-22T12:26:53;24.60;99.90
21830;DHT22;11077;50.264;6.798;2023-06-22T12:29:20;24.80;99.90
21830;DHT22;11077;50.264;6.798;2023-06-22T12:31:48;24.90;99.90
21830;DHT22;11077;50.264;6.798;2023-06-22T12:34:15;25.00;99.90
21830;DHT22;11077;50.264;6.798;2023-06-22T12:36:44;25.10;99.90
21830;DHT22;11077;50.264;6.798;2023-06-22T12:39:13;25.20;99.90
21830;DHT22;11077;50.264;6.798;2023-06-22T12:41:40;25.30;99.90
21830;DHT22;11077;50.264;6.798;2023-06-22T12:44:08;25.40;99.90
21830;DHT22;11077;50.264;6.798;2023-06-22T12:46:35;25.40;99.90
21830;DHT22;11077;50.264;6.798;2023-06-22T12:49:04;25.50;99.90
21830;DHT22;11077;50.264;6.798;2023-06-22T12:51:58;25.70;99.90
21830;DHT22;11077;50.264;6.798;2023-06-22T12:54:25;25.70;99.90
21830;DHT22;11077;50.264;6.798;2023-06-22T12:56:52;25.80;99.90
21830;DHT22;11077;50.264;6.798;2023-06-22T12:59:19;25.80;99.90
21830;DHT22;11077;50.264;6.798;2023-06-22T13:04:41;26.00;99.90
21830;DHT22;11077;50.264;6.798;2023-06-22T13:07:10;26.00;99.90
21830;DHT22;11077;50.264;6.798;2023-06-22T13:09:38;26.00;99.90
21830;DHT22;11077;50.264;6.798;2023-06-22T13:12:06;25.90;99.90
21830;DHT22;11077;50.264;6.798;2023-06-22T13:14:36;25.80;99.90
21830;DHT22;11077;50.264;6.798;2023-06-22T13:17:04;25.60;99.90
21830;DHT22;11077;50.264;6.798;2023-06-22T13:19:31;25.40;99.90
21830;DHT22;11077;50.264;6.798;2023-06-22T13:21:59;25.30;99.90
21830;DHT22;11077;50.264;6.798;2023-06-22T13:24:41;25.20;99.90
21830;DHT22;11077;50.264;6.798;2023-06-22T13:27:13;25.10;99.90
21830;DHT22;11077;50.264;6.798;2023-06-22T13:29:50;25.00;99.90
21830;DHT22;11077;50.264;6.798;2023-06-22T13:32:18;25.00;99.90
21830;DHT22;11077;50.264;6.798;2023-06-22T13:34:48;24.90;99.90
21830;DHT22;11077;50.264;6.798;2023-06-22T13:37:16;24.90;99.90
21830;DHT22;11077;50.264;6.798;2023-06-22T13:39:44;24.80;99.90
21830;DHT22;11077;50.264;6.798;2023-06-22T13:42:14;24.70;99.90
21830;DHT22;11077;50.264;6.798;2023-06-22T13:44:41;24.60;99.90
21830;DHT22;11077;50.264;6.798;2023-06-22T13:47:10;24.60;99.90
21830;DHT22;11077;50.264;6.798;2023-06-22T13:49:40;24.50;99.90
21830;DHT22;11077;50.264;6.798;2023-06-22T13:52:08;24.40;99.90
21830;DHT22;11077;50.264;6.798;2023-06-22T13:54:38;24.20;99.90
21830;DHT22;11077;50.264;6.798;2023-06-22T13:57:07;24.10;99.90
21830;DHT22;11077;50.264;6.798;2023-06-22T13:59:40;24.00;99.90
21830;DHT22;11077;50.264;6.798;2023-06-22T14:02:09;23.90;99.90
21830;DHT22;11077;50.264;6.798;2023-06-22T14:04:38;23.80;99.90
21830;DHT22;11077;50.264;6.798;2023-06-22T14:07:05;23.70;99.90
21830;DHT22;11077;50.264;6.798;2023-06-22T14:09:37;23.60;99.90
21830;DHT22;11077;50.264;6.798;2023-06-22T14:12:12;23.40;99.90
21830;DHT22;11077;50.264;6.798;2023-06-22T14:14:41;23.20;99.90
21830;DHT22;11077;50.264;6.798;2023-06-22T14:17:09;22.90;99.90
21830;DHT22;11077;50.264;6.798;2023-06-22T14:19:40;22.40;99.90
21830;DHT22;11077;50.264;6.798;2023-06-22T14:22:08;22.10;99.90
21830;DHT22;11077;50.264;6.798;2023-06-22T14:24:35;21.80;99.90
21830;DHT22;11077;50.264;6.798;2023-06-22T14:27:02;21.60;99.90
21830;DHT22;11077;50.264;6.798;2023-06-22T14:29:35;21.40;99.90
21830;DHT22;11077;50.264;6.798;2023-06-22T14:32:03;21.30;99.90
21830;DHT22;11077;50.264;6.798;2023-06-22T14:34:33;21.20;99.90
21830;DHT22;11077;50.264;6.798;2023-06-22T14:37:08;21.00;99.90
21830;DHT22;11077;50.264;6.798;2023-06-22T14:39:38;20.80;99.90
21830;DHT22;11077;50.264;6.798;2023-06-22T14:42:06;20.70;99.90
21830;DHT22;11077;50.264;6.798;2023-06-22T14:44:35;20.60;99.90
21830;DHT22;11077;50.264;6.798;2023-06-22T14:47:02;20.50;99.90
21830;DHT22;11077;50.264;6.798;2023-06-22T14:49:30;20.40;99.90
21830;DHT22;11077;50.264;6.798;2023-06-22T14:51:57;20.30;99.90
21830;DHT22;11077;50.264;6.798;2023-06-22T14:54:24;20.20;99.90
21830;DHT22;11077;50.264;6.798;2023-06-22T14:56:51;20.10;99.90
21830;DHT22;11077;50.264;6.798;2023-06-22T14:59:19;20.10;99.90
21830;DHT22;11077;50.264;6.798;2023-06-22T15:01:47;20.20;99.90
21830;DHT22;11077;50.264;6.798;2023-06-22T15:04:15;20.10;99.90
21830;DHT22;11077;50.264;6.798;2023-06-22T15:06:42;20.10;99.90
21830;DHT22;11077;50.264;6.798;2023-06-22T15:09:11;20.10;99.90
21830;DHT22;11077;50.264;6.798;2023-06-22T15:11:38;20.10;99.90
21830;DHT22;11077;50.264;6.798;2023-06-22T15:14:05;20.10;99.90
21830;DHT22;11077;50.264;6.798;2023-06-22T15:16:33;20.20;99.90
21830;DHT22;11077;50.264;6.798;2023-06-22T15:19:01;20.30;99.90
21830;DHT22;11077;50.264;6.798;2023-06-22T15:21:29;20.30;99.90
21830;DHT22;11077;50.264;6.798;2023-06-22T15:23:56;20.30;99.90
21830;DHT22;11077;50.264;6.798;2023-06-22T15:26:24;20.40;99.90
21830;DHT22;11077;50.264;6.798;2023-06-22T15:28:52;20.30;99.90
21830;DHT22;11077;50.264;6.798;2023-06-22T15:31:19;20.30;99.90
21830;DHT22;11077;50.264;6.798;2023-06-22T15:33:46;20.30;99.90
21830;DHT22;11077;50.264;6.798;2023-06-22T15:36:15;20.40;99.90
21830;DHT22;11077;50.264;6.798;2023-06-22T15:38:42;20.30;99.90
21830;DHT22;11077;50.264;6.798;2023-06-22T15:41:10;20.30;99.90